sensor_id;sensor_type;location;lat;lon;timestamp;pressure;altitude;pressure_sealevel;temperature;humidity
35655;BME280;21773;50.010;19.972;2023-02-22T00:00:34;98706.84;;;11.66;47.23
35655;BME280;21773;50.010;19.972;2023-02-22T00:03:47;98703.31;;;11.65;47.24
35655;BME280;21773;50.010;19.972;2023-02-22T00:06:52;98699.09;;;11.58;47.29
35655;BME280;21773;50.010;19.972;2023-02-22T00:09:56;98695.31;;;11.70;47.30
35655;BME280;21773;50.010;19.972;2023-02-22T00:13:01;98702.16;;;11.73;47.44
35655;BME280;21773;50.010;19.972;2023-02-22T00:16:05;98704.19;;;11.78;47.71
35655;BME280;21773;50.010;19.972;2023-02-22T00:19:09;98702.53;;;11.77;47.42
35655;BME280;21773;50.010;19.972;2023-02-22T00:22:13;98713.69;;;11.80;47.56
35655;BME280;21773;50.010;19.972;2023-02-22T00:25:21;98705.09;;;11.83;47.56
35655;BME280;21773;50.010;19.972;2023-02-22T00:28:24;98706.53;;;11.86;47.45
35655;BME280;21773;50.010;19.972;2023-02-22T00:31:28;98716.41;;;11.92;47.01
35655;BME280;21773;50.010;19.972;2023-02-22T00:34:31;98716.41;;;11.92;46.86
35655;BME280;21773;50.010;19.972;2023-02-22T00:37:36;98721.91;;;11.85;46.76
35655;BME280;21773;50.010;19.972;2023-02-22T00:40:42;98714.97;;;11.89;46.77
35655;BME280;21773;50.010;19.972;2023-02-22T00:43:46;98725.34;;;11.92;46.91
35655;BME280;21773;50.010;19.972;2023-02-22T00:46:49;98728.59;;;11.94;46.67
35655;BME280;21773;50.010;19.972;2023-02-22T00:49:53;98719.94;;;11.92;46.74
35655;BME280;21773;50.010;19.972;2023-02-22T00:52:59;98725.91;;;11.94;46.82
35655;BME280;21773;50.010;19.972;2023-02-22T00:56:02;98720.16;;;11.91;46.89
35655;BME280;21773;50.010;19.972;2023-02-22T00:59:06;98719.09;;;11.92;46.92
35655;BME280;21773;50.010;19.972;2023-02-22T01:02:09;98731.78;;;11.91;46.88
35655;BME280;21773;50.010;19.972;2023-02-22T01:05:14;98728.50;;;11.78;47.09
35655;BME280;21773;50.010;19.972;2023-02-22T01:08:19;98728.97;;;11.86;47.07
35655;BME280;21773;50.010;19.972;2023-02-22T01:11:22;98730.13;;;11.90;47.06
35655;BME280;21773;50.010;19.972;2023-02-22T01:14:27;98733.44;;;11.92;47.12
35655;BME280;21773;50.010;19.972;2023-02-22T01:17:31;98729.91;;;11.92;47.09
35655;BME280;21773;50.010;19.972;2023-02-22T01:20:34;98737.75;;;11.93;47.01
35655;BME280;21773;50.010;19.972;2023-02-22T01:23:39;98735.19;;;11.87;47.23
35655;BME280;21773;50.010;19.972;2023-02-22T01:26:42;98735.78;;;11.77;47.77
35655;BME280;21773;50.010;19.972;2023-02-22T01:29:48;98735.00;;;11.70;47.88
35655;BME280;21773;50.010;19.972;2023-02-22T01:32:52;98734.41;;;11.68;47.96
35655;BME280;21773;50.010;19.972;2023-02-22T01:35:56;98737.72;;;11.70;48.04
35655;BME280;21773;50.010;19.972;2023-02-22T01:39:03;98726.91;;;11.70;48.08
35655;BME280;21773;50.010;19.972;2023-02-22T01:42:06;98739.00;;;11.67;48.16
35655;BME280;21773;50.010;19.972;2023-02-22T01:49:02;98735.44;;;11.55;48.61
35655;BME280;21773;50.010;19.972;2023-02-22T01:52:10;98730.41;;;11.47;48.75
35655;BME280;21773;50.010;19.972;2023-02-22T01:55:16;98724.31;;;11.52;48.74
35655;BME280;21773;50.010;19.972;2023-02-22T01:58:21;98730.97;;;11.49;48.92
35655;BME280;21773;50.010;19.972;2023-02-22T02:01:27;98729.78;;;11.45;48.97
35655;BME280;21773;50.010;19.972;2023-02-22T02:04:32;98727.44;;;11.49;48.85
35655;BME280;21773;50.010;19.972;2023-02-22T02:07:37;98729.56;;;11.47;49.07
35655;BME280;21773;50.010;19.972;2023-02-22T02:10:43;98728.41;;;11.43;49.01
35655;BME280;21773;50.010;19.972;2023-02-22T02:13:48;98719.56;;;11.36;49.10
35655;BME280;21773;50.010;19.972;2023-02-22T02:16:52;98724.72;;;11.37;49.30
35655;BME280;21773;50.010;19.972;2023-02-22T02:20:02;98728.34;;;11.31;49.57
35655;BME280;21773;50.010;19.972;2023-02-22T02:23:44;98726.94;;;11.28;49.86
35655;BME280;21773;50.010;19.972;2023-02-22T02:27:11;98721.84;;;11.20;49.80
35655;BME280;21773;50.010;19.972;2023-02-22T02:31:01;98726.44;;;11.20;49.83
35655;BME280;21773;50.010;19.972;2023-02-22T02:34:17;98733.81;;;11.13;50.00
35655;BME280;21773;50.010;19.972;2023-02-22T02:37:32;98725.22;;;11.04;50.10
35655;BME280;21773;50.010;19.972;2023-02-22T02:40:44;98724.75;;;11.07;50.37
35655;BME280;21773;50.010;19.972;2023-02-22T02:43:53;98730.63;;;11.04;50.22
35655;BME280;21773;50.010;19.972;2023-02-22T02:47:00;98730.97;;;11.08;50.20
35655;BME280;21773;50.010;19.972;2023-02-22T02:50:09;98742.81;;;11.07;50.36
35655;BME280;21773;50.010;19.972;2023-02-22T02:53:17;98740.94;;;11.07;50.39
35655;BME280;21773;50.010;19.972;2023-02-22T02:56:23;98715.69;;;11.02;50.49
35655;BME280;21773;50.010;19.972;2023-02-22T02:59:29;98729.81;;;11.15;50.07
35655;BME280;21773;50.010;19.972;2023-02-22T03:02:39;98727.84;;;11.22;50.03
35655;BME280;21773;50.010;19.972;2023-02-22T03:06:05;98732.06;;;11.18;50.25
35655;BME280;21773;50.010;19.972;2023-02-22T03:09:22;98737.22;;;11.20;50.15
35655;BME280;21773;50.010;19.972;2023-02-22T03:12:37;98734.91;;;11.23;50.07
35655;BME280;21773;50.010;19.972;2023-02-22T03:15:49;98743.78;;;11.24;49.77
35655;BME280;21773;50.010;19.972;2023-02-22T03:18:57;98737.13;;;11.26;49.54
35655;BME280;21773;50.010;19.972;2023-02-22T03:22:10;98751.22;;;11.28;49.73
35655;BME280;21773;50.010;19.972;2023-02-22T03:25:18;98746.19;;;11.32;49.48
35655;BME280;21773;50.010;19.972;2023-02-22T03:28:29;98748.41;;;11.35;49.49
35655;BME280;21773;50.010;19.972;2023-02-22T03:31:37;98755.00;;;11.39;49.42
35655;BME280;21773;50.010;19.972;2023-02-22T03:34:44;98757.13;;;11.37;49.53
35655;BME280;21773;50.010;19.972;2023-02-22T03:37:57;98742.88;;;11.30;49.64
35655;BME280;21773;50.010;19.972;2023-02-22T03:41:06;98755.25;;;11.38;49.57
35655;BME280;21773;50.010;19.972;2023-02-22T03:44:13;98755.47;;;11.36;49.46
35655;BME280;21773;50.010;19.972;2023-02-22T03:47:22;98743.94;;;11.29;49.41
35655;BME280;21773;50.010;19.972;2023-02-22T03:50:33;98751.72;;;11.37;49.59
35655;BME280;21773;50.010;19.972;2023-02-22T03:53:41;98751.47;;;11.39;49.46
35655;BME280;21773;50.010;19.972;2023-02-22T03:56:50;98756.44;;;11.42;49.35
35655;BME280;21773;50.010;19.972;2023-02-22T03:59:56;98759.34;;;11.40;49.59
35655;BME280;21773;50.010;19.972;2023-02-22T04:03:02;98759.81;;;11.37;49.58
35655;BME280;21773;50.010;19.972;2023-02-22T04:10:22;98760.25;;;11.34;49.62
35655;BME280;21773;50.010;19.972;2023-02-22T04:13:26;98760.81;;;11.24;49.75
35655;BME280;21773;50.010;19.972;2023-02-22T04:16:30;98755.81;;;11.28;49.87
35655;BME280;21773;50.010;19.972;2023-02-22T04:19:34;98746.38;;;11.19;49.83
35655;BME280;21773;50.010;19.972;2023-02-22T04:22:39;98761.78;;;11.30;49.71
35655;BME280;21773;50.010;19.972;2023-02-22T04:25:44;98758.94;;;11.25;49.85
35655;BME280;21773;50.010;19.972;2023-02-22T04:28:50;98762.94;;;11.22;49.84
35655;BME280;21773;50.010;19.972;2023-02-22T04:31:56;98757.19;;;11.19;49.97
35655;BME280;21773;50.010;19.972;2023-02-22T04:35:00;98752.00;;;11.17;50.11
35655;BME280;21773;50.010;19.972;2023-02-22T04:38:05;98755.53;;;11.18;50.17
35655;BME280;21773;50.010;19.972;2023-02-22T04:41:15;98761.16;;;11.16;50.40
35655;BME280;21773;50.010;19.972;2023-02-22T04:44:19;98768.28;;;11.11;50.40
35655;BME280;21773;50.010;19.972;2023-02-22T04:47:23;98764.03;;;11.03;50.63
35655;BME280;21773;50.010;19.972;2023-02-22T04:50:28;98775.25;;;11.00;50.89
35655;BME280;21773;50.010;19.972;2023-02-22T04:53:31;98773.03;;;10.97;50.93
35655;BME280;21773;50.010;19.972;2023-02-22T04:56:36;98764.94;;;10.97;50.92
35655;BME280;21773;50.010;19.972;2023-02-22T04:59:40;98767.69;;;10.91;50.83
35655;BME280;21773;50.010;19.972;2023-02-22T05:02:46;98769.28;;;10.98;50.91
35655;BME280;21773;50.010;19.972;2023-02-22T05:05:51;98773.84;;;10.98;50.97
35655;BME280;21773;50.010;19.972;2023-02-22T05:08:54;98773.50;;;10.94;51.16
35655;BME280;21773;50.010;19.972;2023-02-22T05:11:59;98766.06;;;10.90;51.05
35655;BME280;21773;50.010;19.972;2023-02-22T05:15:02;98771.38;;;10.96;51.09
35655;BME280;21773;50.010;19.972;2023-02-22T05:18:06;98764.56;;;10.94;51.30
35655;BME280;21773;50.010;19.972;2023-02-22T05:21:09;98768.88;;;10.95;51.27
35655;BME280;21773;50.010;19.972;2023-02-22T05:24:14;98768.09;;;10.94;51.05
35655;BME280;21773;50.010;19.972;2023-02-22T05:27:19;98775.44;;;10.87;51.41
35655;BME280;21773;50.010;19.972;2023-02-22T05:30:25;98788.09;;;10.86;51.38
35655;BME280;21773;50.010;19.972;2023-02-22T05:33:30;98783.38;;;10.82;51.38
35655;BME280;21773;50.010;19.972;2023-02-22T05:36:33;98784.19;;;10.82;51.28
35655;BME280;21773;50.010;19.972;2023-02-22T05:39:37;98783.44;;;10.75;51.43
35655;BME280;21773;50.010;19.972;2023-02-22T05:42:41;98791.31;;;10.77;51.59
35655;BME280;21773;50.010;19.972;2023-02-22T05:45:45;98779.34;;;10.73;51.84
35655;BME280;21773;50.010;19.972;2023-02-22T05:48:48;98789.66;;;10.76;51.76
35655;BME280;21773;50.010;19.972;2023-02-22T05:51:51;98797.47;;;10.84;51.54
35655;BME280;21773;50.010;19.972;2023-02-22T05:54:57;98792.91;;;10.84;51.39
35655;BME280;21773;50.010;19.972;2023-02-22T05:58:01;98809.88;;;10.85;51.44
35655;BME280;21773;50.010;19.972;2023-02-22T06:01:06;98804.47;;;10.85;51.19
35655;BME280;21773;50.010;19.972;2023-02-22T06:04:10;98808.16;;;10.91;51.43
35655;BME280;21773;50.010;19.972;2023-02-22T06:07:14;98802.41;;;10.87;51.38
35655;BME280;21773;50.010;19.972;2023-02-22T06:10:17;98820.91;;;11.02;51.11
35655;BME280;21773;50.010;19.972;2023-02-22T06:13:22;98817.53;;;11.06;51.06
35655;BME280;21773;50.010;19.972;2023-02-22T06:16:25;98831.16;;;11.11;51.02
35655;BME280;21773;50.010;19.972;2023-02-22T06:19:29;98837.38;;;11.12;50.80
35655;BME280;21773;50.010;19.972;2023-02-22T06:22:32;98833.63;;;11.13;51.09
35655;BME280;21773;50.010;19.972;2023-02-22T06:25:35;98834.69;;;11.12;50.72
35655;BME280;21773;50.010;19.972;2023-02-22T06:28:40;98832.50;;;11.20;50.60
35655;BME280;21773;50.010;19.972;2023-02-22T06:31:43;98840.94;;;11.24;50.63
35655;BME280;21773;50.010;19.972;2023-02-22T06:34:47;98842.38;;;11.26;50.40
35655;BME280;21773;50.010;19.972;2023-02-22T06:37:50;98844.63;;;11.29;50.21
35655;BME280;21773;50.010;19.972;2023-02-22T06:40:54;98846.06;;;11.32;50.23
35655;BME280;21773;50.010;19.972;2023-02-22T06:43:59;98850.69;;;11.43;50.35
35655;BME280;21773;50.010;19.972;2023-02-22T06:47:02;98851.63;;;11.49;50.05
35655;BME280;21773;50.010;19.972;2023-02-22T06:50:07;98854.94;;;11.51;49.88
35655;BME280;21773;50.010;19.972;2023-02-22T06:53:14;98853.88;;;11.52;49.76
35655;BME280;21773;50.010;19.972;2023-02-22T06:56:17;98855.53;;;11.53;49.54
35655;BME280;21773;50.010;19.972;2023-02-22T06:59:22;98864.22;;;11.55;49.45
35655;BME280;21773;50.010;19.972;2023-02-22T07:02:26;98862.13;;;11.57;49.00
35655;BME280;21773;50.010;19.972;2023-02-22T07:05:29;98862.00;;;11.63;49.17
35655;BME280;21773;50.010;19.972;2023-02-22T07:08:32;98862.97;;;11.69;49.28
35655;BME280;21773;50.010;19.972;2023-02-22T07:11:37;98860.69;;;11.73;49.06
35655;BME280;21773;50.010;19.972;2023-02-22T07:14:42;98856.31;;;11.71;48.77
35655;BME280;21773;50.010;19.972;2023-02-22T07:17:45;98864.59;;;11.77;48.80
35655;BME280;21773;50.010;19.972;2023-02-22T07:20:49;98861.41;;;11.80;48.76
35655;BME280;21773;50.010;19.972;2023-02-22T07:23:53;98867.16;;;11.83;48.83
35655;BME280;21773;50.010;19.972;2023-02-22T07:26:59;98852.63;;;11.84;48.10
35655;BME280;21773;50.010;19.972;2023-02-22T07:30:06;98863.00;;;11.99;48.05
35655;BME280;21773;50.010;19.972;2023-02-22T07:33:11;98871.31;;;11.97;48.07
35655;BME280;21773;50.010;19.972;2023-02-22T07:36:15;98867.34;;;12.00;47.94
35655;BME280;21773;50.010;19.972;2023-02-22T07:39:19;98869.22;;;11.99;47.85
35655;BME280;21773;50.010;19.972;2023-02-22T07:42:22;98862.84;;;11.94;47.84
35655;BME280;21773;50.010;19.972;2023-02-22T07:45:28;98857.56;;;11.87;48.08
35655;BME280;21773;50.010;19.972;2023-02-22T07:48:31;98862.50;;;11.90;47.81
35655;BME280;21773;50.010;19.972;2023-02-22T07:51:35;98860.97;;;11.94;48.17
35655;BME280;21773;50.010;19.972;2023-02-22T07:54:38;98861.72;;;12.01;48.16
35655;BME280;21773;50.010;19.972;2023-02-22T07:57:43;98865.97;;;12.09;47.86
35655;BME280;21773;50.010;19.972;2023-02-22T08:00:48;98865.59;;;12.17;47.47
35655;BME280;21773;50.010;19.972;2023-02-22T08:03:52;98863.63;;;12.24;47.33
35655;BME280;21773;50.010;19.972;2023-02-22T08:06:55;98866.59;;;12.34;47.50
35655;BME280;21773;50.010;19.972;2023-02-22T08:09:58;98869.75;;;12.43;46.76
35655;BME280;21773;50.010;19.972;2023-02-22T08:13:03;98875.06;;;12.49;46.49
35655;BME280;21773;50.010;19.972;2023-02-22T08:16:08;98870.97;;;12.58;46.50
35655;BME280;21773;50.010;19.972;2023-02-22T08:19:12;98877.66;;;12.68;46.15
35655;BME280;21773;50.010;19.972;2023-02-22T08:22:15;98875.28;;;12.71;46.49
35655;BME280;21773;50.010;19.972;2023-02-22T08:25:20;98874.47;;;12.71;45.15
35655;BME280;21773;50.010;19.972;2023-02-22T08:28:26;98867.78;;;12.73;43.18
35655;BME280;21773;50.010;19.972;2023-02-22T08:31:30;98875.91;;;12.85;42.80
35655;BME280;21773;50.010;19.972;2023-02-22T08:34:34;98870.00;;;12.88;44.65
35655;BME280;21773;50.010;19.972;2023-02-22T08:37:41;98873.88;;;12.92;44.57
35655;BME280;21773;50.010;19.972;2023-02-22T08:40:44;98883.03;;;13.02;44.09
35655;BME280;21773;50.010;19.972;2023-02-22T08:43:49;98876.69;;;13.09;43.20
35655;BME280;21773;50.010;19.972;2023-02-22T08:46:54;98880.69;;;13.18;43.55
35655;BME280;21773;50.010;19.972;2023-02-22T08:49:57;98886.13;;;13.18;43.70
35655;BME280;21773;50.010;19.972;2023-02-22T08:53:02;98887.16;;;13.28;43.70
35655;BME280;21773;50.010;19.972;2023-02-22T08:56:06;98881.84;;;13.33;42.57
35655;BME280;21773;50.010;19.972;2023-02-22T08:59:09;98881.78;;;13.45;42.96
35655;BME280;21773;50.010;19.972;2023-02-22T09:02:16;98877.81;;;13.48;40.66
35655;BME280;21773;50.010;19.972;2023-02-22T09:05:21;98873.66;;;13.57;39.93
35655;BME280;21773;50.010;19.972;2023-02-22T09:08:24;98886.34;;;13.68;38.99
35655;BME280;21773;50.010;19.972;2023-02-22T09:11:27;98883.56;;;13.79;38.93
35655;BME280;21773;50.010;19.972;2023-02-22T09:14:31;98885.06;;;13.87;38.01
35655;BME280;21773;50.010;19.972;2023-02-22T09:17:36;98886.25;;;13.79;37.90
35655;BME280;21773;50.010;19.972;2023-02-22T09:20:39;98887.78;;;13.87;37.40
35655;BME280;21773;50.010;19.972;2023-02-22T09:23:46;98887.50;;;13.88;37.91
35655;BME280;21773;50.010;19.972;2023-02-22T09:26:49;98890.03;;;14.07;38.37
35655;BME280;21773;50.010;19.972;2023-02-22T09:29:55;98890.44;;;14.32;38.30
35655;BME280;21773;50.010;19.972;2023-02-22T09:33:03;98890.81;;;14.69;37.45
35655;BME280;21773;50.010;19.972;2023-02-22T09:36:08;98896.94;;;14.98;36.25
35655;BME280;21773;50.010;19.972;2023-02-22T09:39:11;98891.72;;;15.35;34.47
35655;BME280;21773;50.010;19.972;2023-02-22T09:42:24;98890.22;;;15.87;32.70
35655;BME280;21773;50.010;19.972;2023-02-22T09:45:33;98876.94;;;16.50;32.77
35655;BME280;21773;50.010;19.972;2023-02-22T09:49:01;98877.72;;;17.96;31.02
35655;BME280;21773;50.010;19.972;2023-02-22T09:52:13;98878.56;;;19.08;28.70
35655;BME280;21773;50.010;19.972;2023-02-22T09:55:27;98886.97;;;20.40;26.89
35655;BME280;21773;50.010;19.972;2023-02-22T09:58:37;98885.53;;;20.82;27.03
35655;BME280;21773;50.010;19.972;2023-02-22T10:01:47;98885.72;;;20.61;26.50
35655;BME280;21773;50.010;19.972;2023-02-22T10:04:59;98884.25;;;20.40;26.09
35655;BME280;21773;50.010;19.972;2023-02-22T10:08:11;98876.63;;;20.37;25.29
35655;BME280;21773;50.010;19.972;2023-02-22T10:11:25;98873.56;;;19.95;25.99
35655;BME280;21773;50.010;19.972;2023-02-22T10:14:43;98870.13;;;19.79;26.61
35655;BME280;21773;50.010;19.972;2023-02-22T10:17:58;98869.50;;;19.18;26.06
35655;BME280;21773;50.010;19.972;2023-02-22T10:21:17;98868.50;;;18.43;27.09
35655;BME280;21773;50.010;19.972;2023-02-22T10:24:35;98865.78;;;18.17;28.24
35655;BME280;21773;50.010;19.972;2023-02-22T10:27:43;98861.94;;;18.24;27.96
35655;BME280;21773;50.010;19.972;2023-02-22T10:30:51;98863.28;;;18.11;27.75
35655;BME280;21773;50.010;19.972;2023-02-22T10:33:59;98864.34;;;17.95;28.05
35655;BME280;21773;50.010;19.972;2023-02-22T10:37:18;98863.22;;;17.81;27.97
35655;BME280;21773;50.010;19.972;2023-02-22T10:40:25;98864.06;;;17.81;28.66
35655;BME280;21773;50.010;19.972;2023-02-22T10:43:36;98864.28;;;17.69;28.50
35655;BME280;21773;50.010;19.972;2023-02-22T10:46:40;98865.56;;;17.52;28.03
35655;BME280;21773;50.010;19.972;2023-02-22T10:49:48;98857.03;;;17.28;28.63
35655;BME280;21773;50.010;19.972;2023-02-22T10:52:54;98855.59;;;17.15;29.00
35655;BME280;21773;50.010;19.972;2023-02-22T10:56:09;98853.78;;;17.36;29.11
35655;BME280;21773;50.010;19.972;2023-02-22T10:59:26;98861.28;;;17.66;27.90
35655;BME280;21773;50.010;19.972;2023-02-22T11:02:32;98857.72;;;17.60;28.23
35655;BME280;21773;50.010;19.972;2023-02-22T11:05:38;98850.84;;;17.48;27.97
35655;BME280;21773;50.010;19.972;2023-02-22T11:08:43;98853.75;;;17.31;28.29
35655;BME280;21773;50.010;19.972;2023-02-22T11:12:09;98833.25;;;17.13;28.72
35655;BME280;21773;50.010;19.972;2023-02-22T11:15:25;98854.50;;;17.11;29.13
35655;BME280;21773;50.010;19.972;2023-02-22T11:18:32;98861.28;;;17.09;29.36
35655;BME280;21773;50.010;19.972;2023-02-22T11:21:36;98848.72;;;17.03;28.71
35655;BME280;21773;50.010;19.972;2023-02-22T11:24:46;98850.09;;;17.00;29.07
35655;BME280;21773;50.010;19.972;2023-02-22T11:27:52;98843.72;;;16.84;28.91
35655;BME280;21773;50.010;19.972;2023-02-22T11:31:09;98850.69;;;16.65;29.56
35655;BME280;21773;50.010;19.972;2023-02-22T11:34:29;98844.56;;;16.85;30.17
35655;BME280;21773;50.010;19.972;2023-02-22T11:37:34;98842.19;;;16.99;29.33
35655;BME280;21773;50.010;19.972;2023-02-22T11:40:39;98836.22;;;17.07;29.04
35655;BME280;21773;50.010;19.972;2023-02-22T11:43:44;98847.13;;;17.12;29.34
35655;BME280;21773;50.010;19.972;2023-02-22T11:46:48;98851.75;;;17.11;29.33
35655;BME280;21773;50.010;19.972;2023-02-22T11:49:52;98851.16;;;16.99;28.42
35655;BME280;21773;50.010;19.972;2023-02-22T11:53:19;98839.94;;;16.85;29.54
35655;BME280;21773;50.010;19.972;2023-02-22T11:56:33;98843.63;;;17.16;28.95
35655;BME280;21773;50.010;19.972;2023-02-22T11:59:46;98843.38;;;18.15;28.30
35655;BME280;21773;50.010;19.972;2023-02-22T12:03:25;98842.25;;;18.92;27.19
35655;BME280;21773;50.010;19.972;2023-02-22T12:06:38;98842.25;;;18.87;26.72
35655;BME280;21773;50.010;19.972;2023-02-22T12:09:50;98839.84;;;18.81;27.05
35655;BME280;21773;50.010;19.972;2023-02-22T12:13:08;98834.09;;;18.67;27.25
35655;BME280;21773;50.010;19.972;2023-02-22T12:16:27;98831.09;;;18.48;27.19
35655;BME280;21773;50.010;19.972;2023-02-22T12:19:37;98828.31;;;18.94;26.74
35655;BME280;21773;50.010;19.972;2023-02-22T12:22:46;98827.38;;;20.27;25.19
35655;BME280;21773;50.010;19.972;2023-02-22T12:25:56;98827.66;;;20.59;25.36
35655;BME280;21773;50.010;19.972;2023-02-22T12:29:06;98832.69;;;21.05;24.22
35655;BME280;21773;50.010;19.972;2023-02-22T12:32:15;98824.72;;;22.12;23.79
35655;BME280;21773;50.010;19.972;2023-02-22T12:35:23;98826.78;;;22.71;22.45
35655;BME280;21773;50.010;19.972;2023-02-22T12:38:34;98819.56;;;22.24;22.13
35655;BME280;21773;50.010;19.972;2023-02-22T12:41:41;98823.44;;;21.86;23.23
35655;BME280;21773;50.010;19.972;2023-02-22T12:44:52;98824.84;;;21.41;23.12
35655;BME280;21773;50.010;19.972;2023-02-22T12:48:04;98820.63;;;21.06;23.92
35655;BME280;21773;50.010;19.972;2023-02-22T12:51:26;98813.69;;;21.13;23.89
35655;BME280;21773;50.010;19.972;2023-02-22T12:54:40;98816.84;;;21.26;23.24
35655;BME280;21773;50.010;19.972;2023-02-22T12:57:52;98817.34;;;21.28;23.78
35655;BME280;21773;50.010;19.972;2023-02-22T13:01:02;98817.13;;;21.24;23.19
35655;BME280;21773;50.010;19.972;2023-02-22T13:04:08;98802.94;;;20.93;23.79
35655;BME280;21773;50.010;19.972;2023-02-22T13:07:35;98818.81;;;20.67;24.71
35655;BME280;21773;50.010;19.972;2023-02-22T13:11:01;98803.59;;;20.22;24.11
35655;BME280;21773;50.010;19.972;2023-02-22T13:14:32;98817.00;;;19.85;25.25
35655;BME280;21773;50.010;19.972;2023-02-22T13:17:43;98819.25;;;19.78;25.24
35655;BME280;21773;50.010;19.972;2023-02-22T13:20:54;98815.63;;;19.87;25.55
35655;BME280;21773;50.010;19.972;2023-02-22T13:24:06;98800.22;;;19.58;26.02
35655;BME280;21773;50.010;19.972;2023-02-22T13:27:18;98820.50;;;19.36;25.63
35655;BME280;21773;50.010;19.972;2023-02-22T13:30:29;98811.34;;;19.02;26.35
35655;BME280;21773;50.010;19.972;2023-02-22T13:33:49;98814.16;;;18.72;26.43
35655;BME280;21773;50.010;19.972;2023-02-22T13:37:18;98816.38;;;18.34;26.99
35655;BME280;21773;50.010;19.972;2023-02-22T13:44:29;98814.13;;;17.70;27.69
35655;BME280;21773;50.010;19.972;2023-02-22T13:51:44;98819.03;;;17.01;28.68
35655;BME280;21773;50.010;19.972;2023-02-22T13:54:50;98820.50;;;16.72;28.87
35655;BME280;21773;50.010;19.972;2023-02-22T13:58:00;98820.84;;;16.48;29.30
35655;BME280;21773;50.010;19.972;2023-02-22T14:01:06;98821.59;;;16.39;29.52
35655;BME280;21773;50.010;19.972;2023-02-22T14:07:50;98817.59;;;16.15;29.89
35655;BME280;21773;50.010;19.972;2023-02-22T14:10:54;98815.31;;;16.01;29.95
35655;BME280;21773;50.010;19.972;2023-02-22T14:14:13;98821.50;;;15.92;30.42
35655;BME280;21773;50.010;19.972;2023-02-22T14:17:26;98829.19;;;15.73;30.31
35655;BME280;21773;50.010;19.972;2023-02-22T14:20:32;98810.94;;;15.47;30.73
35655;BME280;21773;50.010;19.972;2023-02-22T14:23:40;98817.75;;;15.49;30.83
35655;BME280;21773;50.010;19.972;2023-02-22T14:26:54;98807.69;;;15.23;31.19
35655;BME280;21773;50.010;19.972;2023-02-22T14:29:58;98823.09;;;15.17;31.40
35655;BME280;21773;50.010;19.972;2023-02-22T14:33:02;98829.84;;;15.15;31.40
35655;BME280;21773;50.010;19.972;2023-02-22T14:36:31;98820.94;;;14.98;31.93
35655;BME280;21773;50.010;19.972;2023-02-22T14:39:40;98825.00;;;14.95;31.83
35655;BME280;21773;50.010;19.972;2023-02-22T14:42:48;98822.13;;;14.85;31.64
35655;BME280;21773;50.010;19.972;2023-02-22T14:45:54;98802.72;;;14.77;31.43
35655;BME280;21773;50.010;19.972;2023-02-22T14:49:04;98824.50;;;14.82;31.56
35655;BME280;21773;50.010;19.972;2023-02-22T14:52:18;98822.16;;;14.68;31.81
35655;BME280;21773;50.010;19.972;2023-02-22T14:55:25;98826.75;;;14.68;31.93
35655;BME280;21773;50.010;19.972;2023-02-22T14:58:35;98830.47;;;14.62;32.17
35655;BME280;21773;50.010;19.972;2023-02-22T15:01:40;98826.84;;;14.56;32.53
35655;BME280;21773;50.010;19.972;2023-02-22T15:04:59;98821.69;;;14.55;32.54
35655;BME280;21773;50.010;19.972;2023-02-22T15:08:08;98827.88;;;14.50;32.55
35655;BME280;21773;50.010;19.972;2023-02-22T15:11:20;98827.84;;;14.33;32.31
35655;BME280;21773;50.010;19.972;2023-02-22T15:14:25;98825.38;;;14.32;32.49
35655;BME280;21773;50.010;19.972;2023-02-22T15:17:28;98802.56;;;14.11;32.99
35655;BME280;21773;50.010;19.972;2023-02-22T15:20:34;98824.31;;;14.16;32.83
35655;BME280;21773;50.010;19.972;2023-02-22T15:23:42;98829.81;;;14.05;33.46
35655;BME280;21773;50.010;19.972;2023-02-22T15:26:47;98833.84;;;14.02;33.11
35655;BME280;21773;50.010;19.972;2023-02-22T15:30:06;98820.13;;;13.92;33.36
35655;BME280;21773;50.010;19.972;2023-02-22T15:33:13;98825.78;;;13.91;33.43
35655;BME280;21773;50.010;19.972;2023-02-22T15:36:18;98826.50;;;13.86;33.34
35655;BME280;21773;50.010;19.972;2023-02-22T15:39:25;98824.75;;;13.80;33.63
35655;BME280;21773;50.010;19.972;2023-02-22T15:42:31;98827.25;;;13.81;33.69
35655;BME280;21773;50.010;19.972;2023-02-22T15:45:44;98824.44;;;13.76;33.60
35655;BME280;21773;50.010;19.972;2023-02-22T15:49:03;98831.31;;;13.67;33.78
35655;BME280;21773;50.010;19.972;2023-02-22T15:52:13;98834.75;;;13.63;33.86
35655;BME280;21773;50.010;19.972;2023-02-22T15:55:23;98827.09;;;13.60;33.97
35655;BME280;21773;50.010;19.972;2023-02-22T15:58:29;98831.97;;;13.58;33.91
35655;BME280;21773;50.010;19.972;2023-02-22T16:01:36;98831.03;;;13.52;33.88
35655;BME280;21773;50.010;19.972;2023-02-22T16:04:43;98838.56;;;13.50;33.90
35655;BME280;21773;50.010;19.972;2023-02-22T16:07:58;98844.47;;;13.47;34.28
35655;BME280;21773;50.010;19.972;2023-02-22T16:11:04;98846.97;;;13.37;34.39
35655;BME280;21773;50.010;19.972;2023-02-22T16:14:27;98849.09;;;13.35;34.88
35655;BME280;21773;50.010;19.972;2023-02-22T16:17:35;98847.09;;;13.30;34.90
35655;BME280;21773;50.010;19.972;2023-02-22T16:20:56;98845.84;;;13.21;34.89
35655;BME280;21773;50.010;19.972;2023-02-22T16:24:00;98845.75;;;13.16;35.02
35655;BME280;21773;50.010;19.972;2023-02-22T16:27:18;98854.91;;;13.15;35.24
35655;BME280;21773;50.010;19.972;2023-02-22T16:30:26;98857.47;;;13.10;35.21
35655;BME280;21773;50.010;19.972;2023-02-22T16:33:30;98857.16;;;13.07;34.95
35655;BME280;21773;50.010;19.972;2023-02-22T16:36:37;98859.03;;;13.06;35.24
35655;BME280;21773;50.010;19.972;2023-02-22T16:39:40;98863.03;;;13.03;34.72
35655;BME280;21773;50.010;19.972;2023-02-22T16:42:44;98860.22;;;12.98;35.48